sensor_id;sensor_type;location;lat;lon;timestamp;temperature;humidity
16827;DHT22;8530;49.540;8.576;2023-02-01T00:01:46;6.70;99.90
16827;DHT22;8530;49.540;8.576;2023-02-01T00:04:13;6.80;99.90
16827;DHT22;8530;49.540;8.576;2023-02-01T00:06:39;6.80;99.90
16827;DHT22;8530;49.540;8.576;2023-02-01T00:09:06;6.80;99.90
16827;DHT22;8530;49.540;8.576;2023-02-01T00:11:33;6.90;99.90
16827;DHT22;8530;49.540;8.576;2023-02-01T00:14:01;6.90;99.90
16827;DHT22;8530;49.540;8.576;2023-02-01T00:16:29;6.90;99.90
16827;DHT22;8530;49.540;8.576;2023-02-01T00:18:58;6.90;99.90
16827;DHT22;8530;49.540;8.576;2023-02-01T00:21:25;6.90;99.90
16827;DHT22;8530;49.540;8.576;2023-02-01T00:23:51;6.90;99.90
16827;DHT22;8530;49.540;8.576;2023-02-01T00:26:20;6.90;99.90
16827;DHT22;8530;49.540;8.576;2023-02-01T00:28:48;6.90;99.90
16827;DHT22;8530;49.540;8.576;2023-02-01T00:31:16;6.90;99.90
16827;DHT22;8530;49.540;8.576;2023-02-01T00:33:46;7.00;99.90
16827;DHT22;8530;49.540;8.576;2023-02-01T00:36:13;6.90;99.90
16827;DHT22;8530;49.540;8.576;2023-02-01T00:38:40;7.00;99.90
16827;DHT22;8530;49.540;8.576;2023-02-01T00:41:10;7.00;99.90
16827;DHT22;8530;49.540;8.576;2023-02-01T00:43:37;6.90;99.90
16827;DHT22;8530;49.540;8.576;2023-02-01T00:46:04;6.90;99.90
16827;DHT22;8530;49.540;8.576;2023-02-01T00:48:33;6.90;99.90
16827;DHT22;8530;49.540;8.576;2023-02-01T00:51:00;7.00;99.90
16827;DHT22;8530;49.540;8.576;2023-02-01T00:53:27;7.00;99.90
16827;DHT22;8530;49.540;8.576;2023-02-01T00:55:53;7.00;99.90
16827;DHT22;8530;49.540;8.576;2023-02-01T00:58:21;6.90;99.90
16827;DHT22;8530;49.540;8.576;2023-02-01T01:00:49;7.00;99.90
16827;DHT22;8530;49.540;8.576;2023-02-01T01:03:16;6.90;99.90
16827;DHT22;8530;49.540;8.576;2023-02-01T01:05:47;7.00;99.90
16827;DHT22;8530;49.540;8.576;2023-02-01T01:08:15;7.00;99.90
16827;DHT22;8530;49.540;8.576;2023-02-01T01:10:42;7.00;99.90
16827;DHT22;8530;49.540;8.576;2023-02-01T01:13:09;7.00;99.90
16827;DHT22;8530;49.540;8.576;2023-02-01T01:15:36;7.00;99.90
16827;DHT22;8530;49.540;8.576;2023-02-01T01:18:04;7.00;99.90
16827;DHT22;8530;49.540;8.576;2023-02-01T01:20:30;7.00;99.90
16827;DHT22;8530;49.540;8.576;2023-02-01T01:22:58;7.00;99.90
16827;DHT22;8530;49.540;8.576;2023-02-01T01:25:25;7.00;99.90
16827;DHT22;8530;49.540;8.576;2023-02-01T01:27:52;7.00;99.90
16827;DHT22;8530;49.540;8.576;2023-02-01T01:30:19;7.00;99.90
16827;DHT22;8530;49.540;8.576;2023-02-01T01:32:45;7.00;99.90
16827;DHT22;8530;49.540;8.576;2023-02-01T01:35:12;7.00;99.90
16827;DHT22;8530;49.540;8.576;2023-02-01T01:37:39;7.00;99.90
16827;DHT22;8530;49.540;8.576;2023-02-01T01:40:09;7.00;99.90
16827;DHT22;8530;49.540;8.576;2023-02-01T01:42:37;7.00;99.90
16827;DHT22;8530;49.540;8.576;2023-02-01T01:45:06;7.00;99.90
16827;DHT22;8530;49.540;8.576;2023-02-01T01:47:35;7.00;99.90
16827;DHT22;8530;49.540;8.576;2023-02-01T01:50:06;7.00;99.90
16827;DHT22;8530;49.540;8.576;2023-02-01T01:52:35;7.10;99.90
16827;DHT22;8530;49.540;8.576;2023-02-01T01:55:03;7.10;99.90
16827;DHT22;8530;49.540;8.576;2023-02-01T01:57:35;7.00;99.90
16827;DHT22;8530;49.540;8.576;2023-02-01T02:00:07;7.00;99.90
16827;DHT22;8530;49.540;8.576;2023-02-01T02:02:34;7.00;99.90
16827;DHT22;8530;49.540;8.576;2023-02-01T02:05:03;7.10;99.90
16827;DHT22;8530;49.540;8.576;2023-02-01T02:07:33;7.10;99.90
16827;DHT22;8530;49.540;8.576;2023-02-01T02:10:03;7.10;99.90
16827;DHT22;8530;49.540;8.576;2023-02-01T02:12:32;7.00;99.90
16827;DHT22;8530;49.540;8.576;2023-02-01T02:14:59;7.00;99.90
16827;DHT22;8530;49.540;8.576;2023-02-01T02:17:31;7.00;99.90
16827;DHT22;8530;49.540;8.576;2023-02-01T02:20:40;7.00;99.90
16827;DHT22;8530;49.540;8.576;2023-02-01T02:32:53;7.00;99.90
16827;DHT22;8530;49.540;8.576;2023-02-01T02:35:28;7.00;99.90
16827;DHT22;8530;49.540;8.576;2023-02-01T02:38:03;7.00;99.90
16827;DHT22;8530;49.540;8.576;2023-02-01T02:40:34;7.00;99.90
16827;DHT22;8530;49.540;8.576;2023-02-01T02:43:07;7.00;99.90
16827;DHT22;8530;49.540;8.576;2023-02-01T02:45:58;6.90;99.90
16827;DHT22;8530;49.540;8.576;2023-02-01T02:48:47;6.90;99.90
16827;DHT22;8530;49.540;8.576;2023-02-01T02:51:23;6.90;99.90
16827;DHT22;8530;49.540;8.576;2023-02-01T02:54:12;6.80;99.90
16827;DHT22;8530;49.540;8.576;2023-02-01T02:56:59;6.80;99.90
16827;DHT22;8530;49.540;8.576;2023-02-01T02:59:47;6.80;99.90
16827;DHT22;8530;49.540;8.576;2023-02-01T03:02:32;6.80;99.90
16827;DHT22;8530;49.540;8.576;2023-02-01T03:05:17;6.70;99.90
16827;DHT22;8530;49.540;8.576;2023-02-01T03:07:57;6.70;99.90
16827;DHT22;8530;49.540;8.576;2023-02-01T03:10:35;6.70;99.90
16827;DHT22;8530;49.540;8.576;2023-02-01T03:13:08;6.70;99.90
16827;DHT22;8530;49.540;8.576;2023-02-01T03:15:42;6.70;99.90
16827;DHT22;8530;49.540;8.576;2023-02-01T03:18:13;6.70;99.90
16827;DHT22;8530;49.540;8.576;2023-02-01T03:20:44;6.70;99.90
16827;DHT22;8530;49.540;8.576;2023-02-01T03:23:15;6.70;99.90
16827;DHT22;8530;49.540;8.576;2023-02-01T03:25:44;6.70;99.90
16827;DHT22;8530;49.540;8.576;2023-02-01T03:28:11;6.70;99.90
16827;DHT22;8530;49.540;8.576;2023-02-01T03:30:41;6.70;99.90
16827;DHT22;8530;49.540;8.576;2023-02-01T03:33:11;6.70;99.90
16827;DHT22;8530;49.540;8.576;2023-02-01T03:35:53;6.70;99.90
16827;DHT22;8530;49.540;8.576;2023-02-01T03:38:24;6.80;99.90
16827;DHT22;8530;49.540;8.576;2023-02-01T03:40:57;6.80;99.90
16827;DHT22;8530;49.540;8.576;2023-02-01T03:43:27;6.80;99.90
16827;DHT22;8530;49.540;8.576;2023-02-01T03:46:01;6.80;99.90
16827;DHT22;8530;49.540;8.576;2023-02-01T03:48:30;6.90;99.90
16827;DHT22;8530;49.540;8.576;2023-02-01T03:50:59;6.90;99.90
16827;DHT22;8530;49.540;8.576;2023-02-01T03:53:29;6.90;99.90
16827;DHT22;8530;49.540;8.576;2023-02-01T03:55:57;6.90;99.90
16827;DHT22;8530;49.540;8.576;2023-02-01T03:58:24;6.90;99.90
16827;DHT22;8530;49.540;8.576;2023-02-01T04:00:53;7.00;99.90
16827;DHT22;8530;49.540;8.576;2023-02-01T04:03:20;7.00;99.90
16827;DHT22;8530;49.540;8.576;2023-02-01T04:05:48;7.00;99.90
16827;DHT22;8530;49.540;8.576;2023-02-01T04:08:15;7.00;99.90
16827;DHT22;8530;49.540;8.576;2023-02-01T04:10:43;7.00;99.90
16827;DHT22;8530;49.540;8.576;2023-02-01T04:13:10;7.00;99.90
16827;DHT22;8530;49.540;8.576;2023-02-01T04:15:37;7.00;99.90
16827;DHT22;8530;49.540;8.576;2023-02-01T04:18:03;7.00;99.90
16827;DHT22;8530;49.540;8.576;2023-02-01T04:20:30;7.10;99.90
16827;DHT22;8530;49.540;8.576;2023-02-01T04:22:57;7.00;99.90
16827;DHT22;8530;49.540;8.576;2023-02-01T04:25:24;7.00;99.90
16827;DHT22;8530;49.540;8.576;2023-02-01T04:27:52;7.00;99.90
16827;DHT22;8530;49.540;8.576;2023-02-01T04:30:19;7.10;99.90
16827;DHT22;8530;49.540;8.576;2023-02-01T04:32:45;7.10;99.90
16827;DHT22;8530;49.540;8.576;2023-02-01T04:35:12;7.10;99.90
16827;DHT22;8530;49.540;8.576;2023-02-01T04:37:39;7.10;99.90
16827;DHT22;8530;49.540;8.576;2023-02-01T04:40:07;7.10;99.90
16827;DHT22;8530;49.540;8.576;2023-02-01T04:42:34;7.10;99.90
16827;DHT22;8530;49.540;8.576;2023-02-01T04:45:02;7.10;99.90
16827;DHT22;8530;49.540;8.576;2023-02-01T04:47:29;7.10;99.90
16827;DHT22;8530;49.540;8.576;2023-02-01T04:49:55;7.10;99.90
16827;DHT22;8530;49.540;8.576;2023-02-01T04:52:22;7.10;99.90
16827;DHT22;8530;49.540;8.576;2023-02-01T04:54:49;7.10;99.90
16827;DHT22;8530;49.540;8.576;2023-02-01T04:57:16;7.10;99.90
16827;DHT22;8530;49.540;8.576;2023-02-01T04:59:42;7.20;99.90
16827;DHT22;8530;49.540;8.576;2023-02-01T05:02:10;7.20;99.90
16827;DHT22;8530;49.540;8.576;2023-02-01T05:04:37;7.20;99.90
16827;DHT22;8530;49.540;8.576;2023-02-01T05:07:04;7.10;99.90
16827;DHT22;8530;49.540;8.576;2023-02-01T05:09:30;7.10;99.90
16827;DHT22;8530;49.540;8.576;2023-02-01T05:11:57;7.00;99.90
16827;DHT22;8530;49.540;8.576;2023-02-01T05:14:50;7.00;99.90
16827;DHT22;8530;49.540;8.576;2023-02-01T05:17:18;6.90;99.90
16827;DHT22;8530;49.540;8.576;2023-02-01T05:19:44;6.80;99.90
16827;DHT22;8530;49.540;8.576;2023-02-01T05:22:11;6.80;99.90
16827;DHT22;8530;49.540;8.576;2023-02-01T05:24:38;6.80;99.90
16827;DHT22;8530;49.540;8.576;2023-02-01T05:27:05;6.80;99.90
16827;DHT22;8530;49.540;8.576;2023-02-01T05:29:32;6.70;99.90
16827;DHT22;8530;49.540;8.576;2023-02-01T05:31:59;6.70;99.90
16827;DHT22;8530;49.540;8.576;2023-02-01T05:34:27;6.70;99.90
16827;DHT22;8530;49.540;8.576;2023-02-01T05:36:54;6.70;99.90
16827;DHT22;8530;49.540;8.576;2023-02-01T05:39:21;6.60;99.90
16827;DHT22;8530;49.540;8.576;2023-02-01T05:41:48;6.60;99.90
16827;DHT22;8530;49.540;8.576;2023-02-01T05:44:15;6.60;99.90
16827;DHT22;8530;49.540;8.576;2023-02-01T05:46:41;6.50;99.90
16827;DHT22;8530;49.540;8.576;2023-02-01T05:49:08;6.50;99.90
16827;DHT22;8530;49.540;8.576;2023-02-01T05:51:36;6.50;99.90
16827;DHT22;8530;49.540;8.576;2023-02-01T05:54:03;6.50;99.90
16827;DHT22;8530;49.540;8.576;2023-02-01T05:56:30;6.50;99.90
16827;DHT22;8530;49.540;8.576;2023-02-01T05:58:56;6.50;99.90
16827;DHT22;8530;49.540;8.576;2023-02-01T06:01:23;6.40;99.90
16827;DHT22;8530;49.540;8.576;2023-02-01T06:03:50;6.40;99.90
16827;DHT22;8530;49.540;8.576;2023-02-01T06:06:17;6.40;99.90
16827;DHT22;8530;49.540;8.576;2023-02-01T06:08:46;6.40;99.90
16827;DHT22;8530;49.540;8.576;2023-02-01T06:11:13;6.40;99.90
16827;DHT22;8530;49.540;8.576;2023-02-01T06:13:39;6.40;99.90
16827;DHT22;8530;49.540;8.576;2023-02-01T06:16:06;6.40;99.90
16827;DHT22;8530;49.540;8.576;2023-02-01T06:18:33;6.40;99.90
16827;DHT22;8530;49.540;8.576;2023-02-01T06:21:00;6.40;99.90
16827;DHT22;8530;49.540;8.576;2023-02-01T06:23:27;6.40;99.90
16827;DHT22;8530;49.540;8.576;2023-02-01T06:26:00;6.40;99.90
16827;DHT22;8530;49.540;8.576;2023-02-01T06:28:27;6.40;99.90
16827;DHT22;8530;49.540;8.576;2023-02-01T06:30:54;6.30;99.90
16827;DHT22;8530;49.540;8.576;2023-02-01T06:33:23;6.40;99.90
16827;DHT22;8530;49.540;8.576;2023-02-01T06:35:56;6.30;99.90
16827;DHT22;8530;49.540;8.576;2023-02-01T06:38:24;6.40;99.90
16827;DHT22;8530;49.540;8.576;2023-02-01T06:40:52;6.40;99.90
16827;DHT22;8530;49.540;8.576;2023-02-01T06:43:20;6.40;99.90
16827;DHT22;8530;49.540;8.576;2023-02-01T06:45:47;6.40;99.90
16827;DHT22;8530;49.540;8.576;2023-02-01T06:48:13;6.40;99.90
16827;DHT22;8530;49.540;8.576;2023-02-01T06:50:40;6.40;99.90
16827;DHT22;8530;49.540;8.576;2023-02-01T06:53:07;6.40;99.90
16827;DHT22;8530;49.540;8.576;2023-02-01T06:55:34;6.40;99.90
16827;DHT22;8530;49.540;8.576;2023-02-01T06:58:00;6.40;99.90
16827;DHT22;8530;49.540;8.576;2023-02-01T07:00:29;6.50;99.90
16827;DHT22;8530;49.540;8.576;2023-02-01T07:02:57;6.50;99.90
16827;DHT22;8530;49.540;8.576;2023-02-01T07:05:24;6.50;99.90
16827;DHT22;8530;49.540;8.576;2023-02-01T07:07:50;6.50;99.90
16827;DHT22;8530;49.540;8.576;2023-02-01T07:10:18;6.50;99.90
16827;DHT22;8530;49.540;8.576;2023-02-01T07:12:44;6.50;99.90
16827;DHT22;8530;49.540;8.576;2023-02-01T07:15:11;6.60;99.90
16827;DHT22;8530;49.540;8.576;2023-02-01T07:17:39;6.60;99.90
16827;DHT22;8530;49.540;8.576;2023-02-01T07:20:07;6.60;99.90
16827;DHT22;8530;49.540;8.576;2023-02-01T07:22:34;6.60;99.90
16827;DHT22;8530;49.540;8.576;2023-02-01T07:25:01;6.60;99.90
16827;DHT22;8530;49.540;8.576;2023-02-01T07:27:28;6.60;99.90
16827;DHT22;8530;49.540;8.576;2023-02-01T07:29:55;6.60;99.90
16827;DHT22;8530;49.540;8.576;2023-02-01T07:32:22;6.60;99.90
16827;DHT22;8530;49.540;8.576;2023-02-01T07:34:50;6.50;99.90
16827;DHT22;8530;49.540;8.576;2023-02-01T07:37:16;6.60;99.90
16827;DHT22;8530;49.540;8.576;2023-02-01T07:39:44;6.60;99.90
16827;DHT22;8530;49.540;8.576;2023-02-01T07:42:10;6.60;99.90
16827;DHT22;8530;49.540;8.576;2023-02-01T07:44:37;6.70;99.90
16827;DHT22;8530;49.540;8.576;2023-02-01T07:47:04;6.70;99.90
16827;DHT22;8530;49.540;8.576;2023-02-01T07:49:31;6.70;99.90
16827;DHT22;8530;49.540;8.576;2023-02-01T07:51:59;6.70;99.90
16827;DHT22;8530;49.540;8.576;2023-02-01T07:54:25;6.80;99.90
16827;DHT22;8530;49.540;8.576;2023-02-01T07:56:52;6.80;99.90
16827;DHT22;8530;49.540;8.576;2023-02-01T07:59:19;6.80;99.90
16827;DHT22;8530;49.540;8.576;2023-02-01T08:01:46;6.80;99.90
16827;DHT22;8530;49.540;8.576;2023-02-01T08:04:12;6.90;99.90
16827;DHT22;8530;49.540;8.576;2023-02-01T08:06:40;7.00;99.90
16827;DHT22;8530;49.540;8.576;2023-02-01T08:09:08;7.10;99.90
16827;DHT22;8530;49.540;8.576;2023-02-01T08:11:36;7.10;99.90
16827;DHT22;8530;49.540;8.576;2023-02-01T08:14:03;7.20;99.90
16827;DHT22;8530;49.540;8.576;2023-02-01T08:16:30;7.20;99.90
16827;DHT22;8530;49.540;8.576;2023-02-01T08:18:57;7.30;99.90
16827;DHT22;8530;49.540;8.576;2023-02-01T08:21:26;7.30;99.90
16827;DHT22;8530;49.540;8.576;2023-02-01T08:24:02;7.40;99.90
16827;DHT22;8530;49.540;8.576;2023-02-01T08:26:30;7.40;99.90
16827;DHT22;8530;49.540;8.576;2023-02-01T08:28:59;7.60;99.90
16827;DHT22;8530;49.540;8.576;2023-02-01T08:31:28;7.70;99.90
16827;DHT22;8530;49.540;8.576;2023-02-01T08:33:57;7.70;99.90
16827;DHT22;8530;49.540;8.576;2023-02-01T08:36:26;7.80;99.90
16827;DHT22;8530;49.540;8.576;2023-02-01T08:38:53;7.90;99.90
16827;DHT22;8530;49.540;8.576;2023-02-01T08:41:22;7.90;99.90
16827;DHT22;8530;49.540;8.576;2023-02-01T08:43:51;7.90;99.90
16827;DHT22;8530;49.540;8.576;2023-02-01T08:46:18;8.00;99.90
16827;DHT22;8530;49.540;8.576;2023-02-01T08:48:45;8.00;99.90
16827;DHT22;8530;49.540;8.576;2023-02-01T08:51:13;7.90;99.90
16827;DHT22;8530;49.540;8.576;2023-02-01T08:53:41;7.90;99.90
16827;DHT22;8530;49.540;8.576;2023-02-01T08:56:08;7.90;99.90
16827;DHT22;8530;49.540;8.576;2023-02-01T08:58:35;8.00;99.90
16827;DHT22;8530;49.540;8.576;2023-02-01T09:01:05;8.20;99.90
16827;DHT22;8530;49.540;8.576;2023-02-01T09:03:31;8.30;99.90
16827;DHT22;8530;49.540;8.576;2023-02-01T09:06:02;8.30;99.90
16827;DHT22;8530;49.540;8.576;2023-02-01T09:08:29;8.40;99.90
16827;DHT22;8530;49.540;8.576;2023-02-01T09:11:00;8.50;99.90
16827;DHT22;8530;49.540;8.576;2023-02-01T09:13:27;8.60;99.90
16827;DHT22;8530;49.540;8.576;2023-02-01T09:15:53;8.70;99.90
16827;DHT22;8530;49.540;8.576;2023-02-01T09:18:22;8.90;99.90
16827;DHT22;8530;49.540;8.576;2023-02-01T09:20:48;9.10;99.90
16827;DHT22;8530;49.540;8.576;2023-02-01T09:23:15;9.20;99.90
16827;DHT22;8530;49.540;8.576;2023-02-01T09:25:42;9.20;99.90
16827;DHT22;8530;49.540;8.576;2023-02-01T09:28:09;9.20;99.90
16827;DHT22;8530;49.540;8.576;2023-02-01T09:30:37;9.10;99.90
16827;DHT22;8530;49.540;8.576;2023-02-01T09:33:04;9.00;99.90
16827;DHT22;8530;49.540;8.576;2023-02-01T09:35:32;9.00;99.90
16827;DHT22;8530;49.540;8.576;2023-02-01T09:37:59;8.90;99.90
16827;DHT22;8530;49.540;8.576;2023-02-01T09:40:26;8.90;99.90
16827;DHT22;8530;49.540;8.576;2023-02-01T09:43:11;8.90;99.90
16827;DHT22;8530;49.540;8.576;2023-02-01T09:45:45;8.90;99.90
16827;DHT22;8530;49.540;8.576;2023-02-01T09:48:16;8.90;99.90
16827;DHT22;8530;49.540;8.576;2023-02-01T09:50:48;9.00;99.90
16827;DHT22;8530;49.540;8.576;2023-02-01T09:53:21;9.10;99.90
16827;DHT22;8530;49.540;8.576;2023-02-01T09:55:54;9.10;99.90
16827;DHT22;8530;49.540;8.576;2023-02-01T09:58:25;9.10;99.90
16827;DHT22;8530;49.540;8.576;2023-02-01T10:00:56;9.00;99.90
16827;DHT22;8530;49.540;8.576;2023-02-01T10:03:24;9.00;99.90
16827;DHT22;8530;49.540;8.576;2023-02-01T10:06:13;9.00;99.90
16827;DHT22;8530;49.540;8.576;2023-02-01T10:09:04;9.00;99.90
16827;DHT22;8530;49.540;8.576;2023-02-01T10:11:42;9.00;99.80
16827;DHT22;8530;49.540;8.576;2023-02-01T10:14:26;9.00;99.70
16827;DHT22;8530;49.540;8.576;2023-02-01T10:17:07;8.90;99.30
16827;DHT22;8530;49.540;8.576;2023-02-01T10:19:41;8.90;99.30
16827;DHT22;8530;49.540;8.576;2023-02-01T10:22:20;8.80;99.00
16827;DHT22;8530;49.540;8.576;2023-02-01T10:24:54;8.80;99.00
16827;DHT22;8530;49.540;8.576;2023-02-01T10:27:29;8.80;99.00
16827;DHT22;8530;49.540;8.576;2023-02-01T10:30:01;8.70;98.80
16827;DHT22;8530;49.540;8.576;2023-02-01T10:32:32;8.70;98.70
16827;DHT22;8530;49.540;8.576;2023-02-01T10:35:02;8.70;98.60
16827;DHT22;8530;49.540;8.576;2023-02-01T10:37:32;8.70;98.30
16827;DHT22;8530;49.540;8.576;2023-02-01T10:40:01;8.70;98.20
16827;DHT22;8530;49.540;8.576;2023-02-01T10:42:31;8.70;98.00
16827;DHT22;8530;49.540;8.576;2023-02-01T10:44:59;8.70;98.00
16827;DHT22;8530;49.540;8.576;2023-02-01T10:47:28;8.70;97.80
16827;DHT22;8530;49.540;8.576;2023-02-01T10:50:02;8.70;97.70
16827;DHT22;8530;49.540;8.576;2023-02-01T10:52:36;8.70;97.30
16827;DHT22;8530;49.540;8.576;2023-02-01T10:55:32;8.70;97.20
16827;DHT22;8530;49.540;8.576;2023-02-01T10:58:00;8.80;97.10
16827;DHT22;8530;49.540;8.576;2023-02-01T11:00:27;8.80;97.10
16827;DHT22;8530;49.540;8.576;2023-02-01T11:02:54;8.90;97.00
16827;DHT22;8530;49.540;8.576;2023-02-01T11:05:22;8.90;96.80
16827;DHT22;8530;49.540;8.576;2023-02-01T11:07:53;9.00;96.60
16827;DHT22;8530;49.540;8.576;2023-02-01T11:10:35;9.00;96.30
16827;DHT22;8530;49.540;8.576;2023-02-01T11:13:03;9.10;95.90
16827;DHT22;8530;49.540;8.576;2023-02-01T11:15:29;9.10;95.70
16827;DHT22;8530;49.540;8.576;2023-02-01T11:18:14;9.10;95.60
16827;DHT22;8530;49.540;8.576;2023-02-01T11:20:41;9.10;95.50
16827;DHT22;8530;49.540;8.576;2023-02-01T11:23:14;9.10;95.00
16827;DHT22;8530;49.540;8.576;2023-02-01T11:25:49;9.00;94.80
16827;DHT22;8530;49.540;8.576;2023-02-01T11:28:16;9.10;94.70
16827;DHT22;8530;49.540;8.576;2023-02-01T11:30:45;9.20;94.80
16827;DHT22;8530;49.540;8.576;2023-02-01T11:33:16;9.20;94.50
16827;DHT22;8530;49.540;8.576;2023-02-01T11:35:44;9.20;94.20
16827;DHT22;8530;49.540;8.576;2023-02-01T11:38:20;9.20;93.90
16827;DHT22;8530;49.540;8.576;2023-02-01T11:40:47;9.20;93.70
16827;DHT22;8530;49.540;8.576;2023-02-01T11:43:19;9.20;93.50
16827;DHT22;8530;49.540;8.576;2023-02-01T11:45:57;9.20;93.40
16827;DHT22;8530;49.540;8.576;2023-02-01T11:48:25;9.20;93.10
16827;DHT22;8530;49.540;8.576;2023-02-01T11:51:00;9.20;93.00
16827;DHT22;8530;49.540;8.576;2023-02-01T11:53:41;9.20;92.80
16827;DHT22;8530;49.540;8.576;2023-02-01T11:56:15;9.30;92.60
16827;DHT22;8530;49.540;8.576;2023-02-01T11:59:12;9.40;92.30
16827;DHT22;8530;49.540;8.576;2023-02-01T12:01:56;9.50;92.00
16827;DHT22;8530;49.540;8.576;2023-02-01T12:04:45;9.60;91.40
16827;DHT22;8530;49.540;8.576;2023-02-01T12:07:20;9.60;91.10
16827;DHT22;8530;49.540;8.576;2023-02-01T12:10:00;9.50;90.90
16827;DHT22;8530;49.540;8.576;2023-02-01T12:12:37;9.50;90.50
16827;DHT22;8530;49.540;8.576;2023-02-01T12:15:22;9.40;90.30
16827;DHT22;8530;49.540;8.576;2023-02-01T12:18:05;9.30;90.00
16827;DHT22;8530;49.540;8.576;2023-02-01T12:20:57;9.20;89.50
16827;DHT22;8530;49.540;8.576;2023-02-01T12:23:37;9.20;89.20
16827;DHT22;8530;49.540;8.576;2023-02-01T12:26:33;9.10;88.90
16827;DHT22;8530;49.540;8.576;2023-02-01T12:29:17;9.00;88.40
16827;DHT22;8530;49.540;8.576;2023-02-01T12:34:55;8.90;87.80
16827;DHT22;8530;49.540;8.576;2023-02-01T12:37:43;8.90;87.50
16827;DHT22;8530;49.540;8.576;2023-02-01T12:40:28;8.90;87.70
16827;DHT22;8530;49.540;8.576;2023-02-01T12:43:01;8.90;87.60
16827;DHT22;8530;49.540;8.576;2023-02-01T12:45:32;9.00;87.30
16827;DHT22;8530;49.540;8.576;2023-02-01T12:48:21;9.00;87.10
16827;DHT22;8530;49.540;8.576;2023-02-01T12:50:53;9.00;86.70
16827;DHT22;8530;49.540;8.576;2023-02-01T12:53:25;9.10;86.20
16827;DHT22;8530;49.540;8.576;2023-02-01T12:55:55;9.00;85.90
16827;DHT22;8530;49.540;8.576;2023-02-01T12:58:27;9.10;85.70
16827;DHT22;8530;49.540;8.576;2023-02-01T13:00:58;9.00;85.10
16827;DHT22;8530;49.540;8.576;2023-02-01T13:03:37;9.00;84.90
16827;DHT22;8530;49.540;8.576;2023-02-01T13:06:08;9.00;84.60
16827;DHT22;8530;49.540;8.576;2023-02-01T13:08:43;9.00;84.90
16827;DHT22;8530;49.540;8.576;2023-02-01T13:11:12;8.90;83.30
16827;DHT22;8530;49.540;8.576;2023-02-01T13:13:52;8.90;82.80
16827;DHT22;8530;49.540;8.576;2023-02-01T13:16:24;8.90;82.80
16827;DHT22;8530;49.540;8.576;2023-02-01T13:18:59;8.90;82.70
16827;DHT22;8530;49.540;8.576;2023-02-01T13:21:31;8.90;82.40
16827;DHT22;8530;49.540;8.576;2023-02-01T13:23:59;8.90;82.30
16827;DHT22;8530;49.540;8.576;2023-02-01T13:26:26;8.90;82.80
16827;DHT22;8530;49.540;8.576;2023-02-01T13:28:58;8.90;82.60
16827;DHT22;8530;49.540;8.576;2023-02-01T13:31:55;8.90;81.80
16827;DHT22;8530;49.540;8.576;2023-02-01T13:40:43;8.90;81.20
16827;DHT22;8530;49.540;8.576;2023-02-01T13:43:13;9.00;81.10
16827;DHT22;8530;49.540;8.576;2023-02-01T13:45:46;9.00;80.60
16827;DHT22;8530;49.540;8.576;2023-02-01T13:48:24;9.00;80.30
16827;DHT22;8530;49.540;8.576;2023-02-01T13:50:56;9.00;80.00
16827;DHT22;8530;49.540;8.576;2023-02-01T13:53:28;9.00;79.70
16827;DHT22;8530;49.540;8.576;2023-02-01T13:56:00;8.90;79.30
16827;DHT22;8530;49.540;8.576;2023-02-01T13:58:33;8.90;79.20
16827;DHT22;8530;49.540;8.576;2023-02-01T14:01:35;8.90;79.60
16827;DHT22;8530;49.540;8.576;2023-02-01T14:04:04;9.00;78.80
16827;DHT22;8530;49.540;8.576;2023-02-01T14:06:43;9.00;78.90
16827;DHT22;8530;49.540;8.576;2023-02-01T14:09:17;9.10;78.70
16827;DHT22;8530;49.540;8.576;2023-02-01T14:11:47;9.10;78.40
16827;DHT22;8530;49.540;8.576;2023-02-01T14:14:39;9.10;78.00
16827;DHT22;8530;49.540;8.576;2023-02-01T14:17:40;9.10;77.50
16827;DHT22;8530;49.540;8.576;2023-02-01T14:23:22;9.10;77.10
16827;DHT22;8530;49.540;8.576;2023-02-01T14:26:05;9.10;76.80
16827;DHT22;8530;49.540;8.576;2023-02-01T14:28:36;9.10;76.60
16827;DHT22;8530;49.540;8.576;2023-02-01T14:31:15;9.10;76.60
16827;DHT22;8530;49.540;8.576;2023-02-01T14:33:45;9.20;76.40
16827;DHT22;8530;49.540;8.576;2023-02-01T14:36:13;9.20;76.20
16827;DHT22;8530;49.540;8.576;2023-02-01T14:38:48;9.30;75.90
16827;DHT22;8530;49.540;8.576;2023-02-01T14:41:33;9.30;75.60
16827;DHT22;8530;49.540;8.576;2023-02-01T14:44:28;9.40;75.30
16827;DHT22;8530;49.540;8.576;2023-02-01T14:47:06;9.40;74.90
16827;DHT22;8530;49.540;8.576;2023-02-01T14:49:38;9.40;74.70
16827;DHT22;8530;49.540;8.576;2023-02-01T14:52:13;9.30;74.30
16827;DHT22;8530;49.540;8.576;2023-02-01T14:54:41;9.20;73.90
16827;DHT22;8530;49.540;8.576;2023-02-01T14:57:15;9.20;73.80
16827;DHT22;8530;49.540;8.576;2023-02-01T14:59:45;9.10;73.60
16827;DHT22;8530;49.540;8.576;2023-02-01T15:02:20;9.10;74.20
16827;DHT22;8530;49.540;8.576;2023-02-01T15:04:54;9.10;73.40
16827;DHT22;8530;49.540;8.576;2023-02-01T15:07:22;9.10;73.20
16827;DHT22;8530;49.540;8.576;2023-02-01T15:09:51;9.10;73.00
16827;DHT22;8530;49.540;8.576;2023-02-01T15:12:24;9.00;72.70
16827;DHT22;8530;49.540;8.576;2023-02-01T15:15:13;9.00;73.00
16827;DHT22;8530;49.540;8.576;2023-02-01T15:17:41;9.00;72.30
16827;DHT22;8530;49.540;8.576;2023-02-01T15:20:15;9.00;72.20
16827;DHT22;8530;49.540;8.576;2023-02-01T15:22:43;8.90;71.90
16827;DHT22;8530;49.540;8.576;2023-02-01T15:25:19;9.00;71.90
16827;DHT22;8530;49.540;8.576;2023-02-01T15:27:46;9.00;71.80
16827;DHT22;8530;49.540;8.576;2023-02-01T15:30:17;9.00;71.60
16827;DHT22;8530;49.540;8.576;2023-02-01T15:32:44;9.00;71.40
16827;DHT22;8530;49.540;8.576;2023-02-01T15:35:36;9.10;71.40
16827;DHT22;8530;49.540;8.576;2023-02-01T15:38:30;9.20;71.20
16827;DHT22;8530;49.540;8.576;2023-02-01T15:40:59;9.20;70.70
16827;DHT22;8530;49.540;8.576;2023-02-01T15:43:28;9.20;70.60
16827;DHT22;8530;49.540;8.576;2023-02-01T15:45:57;9.30;70.40
16827;DHT22;8530;49.540;8.576;2023-02-01T15:48:26;9.20;70.10
16827;DHT22;8530;49.540;8.576;2023-02-01T15:50:55;9.20;69.90
16827;DHT22;8530;49.540;8.576;2023-02-01T15:53:24;9.20;69.80
16827;DHT22;8530;49.540;8.576;2023-02-01T15:55:57;9.20;69.60
16827;DHT22;8530;49.540;8.576;2023-02-01T15:58:26;9.20;69.50
16827;DHT22;8530;49.540;8.576;2023-02-01T16:00:54;9.10;69.20
16827;DHT22;8530;49.540;8.576;2023-02-01T16:03:28;9.10;69.10
16827;DHT22;8530;49.540;8.576;2023-02-01T16:05:58;9.00;68.90
16827;DHT22;8530;49.540;8.576;2023-02-01T16:08:27;9.00;68.90
16827;DHT22;8530;49.540;8.576;2023-02-01T16:10:59;9.00;68.90
16827;DHT22;8530;49.540;8.576;2023-02-01T16:13:26;8.90;68.80
16827;DHT22;8530;49.540;8.576;2023-02-01T16:15:53;8.90;68.70
16827;DHT22;8530;49.540;8.576;2023-02-01T16:18:20;8.90;68.70
16827;DHT22;8530;49.540;8.576;2023-02-01T16:20:47;8.80;68.60
16827;DHT22;8530;49.540;8.576;2023-02-01T16:23:15;8.80;68.50
16827;DHT22;8530;49.540;8.576;2023-02-01T16:25:43;8.80;68.50
16827;DHT22;8530;49.540;8.576;2023-02-01T16:28:10;8.70;68.50
16827;DHT22;8530;49.540;8.576;2023-02-01T16:30:37;8.70;68.50
16827;DHT22;8530;49.540;8.576;2023-02-01T16:33:05;8.60;68.40
16827;DHT22;8530;49.540;8.576;2023-02-01T16:35:33;8.60;68.40
16827;DHT22;8530;49.540;8.576;2023-02-01T16:38:01;8.60;68.50
16827;DHT22;8530;49.540;8.576;2023-02-01T16:40:35;8.60;68.40
16827;DHT22;8530;49.540;8.576;2023-02-01T16:43:05;8.60;68.50
16827;DHT22;8530;49.540;8.576;2023-02-01T16:45:36;8.60;69.10
16827;DHT22;8530;49.540;8.576;2023-02-01T16:48:04;8.60;68.50
16827;DHT22;8530;49.540;8.576;2023-02-01T16:50:32;8.50;68.50